sensor_id;sensor_type;location;lat;lon;timestamp;P1;durP1;ratioP1;P2;durP2;ratioP2
12151;SDS011;6139;51.274;7.128;2024-01-15T00:00:17;33.20;;;19.27;;
12151;SDS011;6139;51.274;7.128;2024-01-15T00:01:19;34.03;;;20.17;;
12151;SDS011;6139;51.274;7.128;2024-01-15T00:02:20;36.50;;;20.40;;
12151;SDS011;6139;51.274;7.128;2024-01-15T00:03:22;37.77;;;21.17;;
12151;SDS011;6139;51.274;7.128;2024-01-15T00:04:24;44.57;;;22.03;;
12151;SDS011;6139;51.274;7.128;2024-01-15T00:05:26;38.90;;;20.97;;
12151;SDS011;6139;51.274;7.128;2024-01-15T00:06:27;39.23;;;22.67;;
12151;SDS011;6139;51.274;7.128;2024-01-15T00:07:29;38.10;;;21.07;;
12151;SDS011;6139;51.274;7.128;2024-01-15T00:08:30;36.07;;;21.47;;
12151;SDS011;6139;51.274;7.128;2024-01-15T00:09:32;34.37;;;20.10;;
12151;SDS011;6139;51.274;7.128;2024-01-15T00:10:33;38.90;;;21.23;;
12151;SDS011;6139;51.274;7.128;2024-01-15T00:11:35;42.53;;;22.50;;
12151;SDS011;6139;51.274;7.128;2024-01-15T00:12:36;33.80;;;20.20;;
12151;SDS011;6139;51.274;7.128;2024-01-15T00:13:38;35.70;;;20.27;;
12151;SDS011;6139;51.274;7.128;2024-01-15T00:14:39;31.73;;;20.23;;
12151;SDS011;6139;51.274;7.128;2024-01-15T00:15:42;34.33;;;20.57;;
12151;SDS011;6139;51.274;7.128;2024-01-15T00:16:43;32.77;;;20.97;;
12151;SDS011;6139;51.274;7.128;2024-01-15T00:17:45;35.33;;;19.73;;
12151;SDS011;6139;51.274;7.128;2024-01-15T00:18:47;37.87;;;20.27;;
12151;SDS011;6139;51.274;7.128;2024-01-15T00:19:49;33.17;;;19.97;;
12151;SDS011;6139;51.274;7.128;2024-01-15T00:20:51;34.03;;;20.07;;
12151;SDS011;6139;51.274;7.128;2024-01-15T00:21:52;33.90;;;19.63;;
12151;SDS011;6139;51.274;7.128;2024-01-15T00:22:54;53.57;;;21.10;;
12151;SDS011;6139;51.274;7.128;2024-01-15T00:23:55;34.90;;;19.57;;
12151;SDS011;6139;51.274;7.128;2024-01-15T00:24:57;34.83;;;20.03;;
12151;SDS011;6139;51.274;7.128;2024-01-15T00:25:57;35.20;;;20.07;;
12151;SDS011;6139;51.274;7.128;2024-01-15T00:26:59;33.67;;;19.73;;
12151;SDS011;6139;51.274;7.128;2024-01-15T00:28:00;33.30;;;19.17;;
12151;SDS011;6139;51.274;7.128;2024-01-15T00:29:02;33.60;;;19.87;;
12151;SDS011;6139;51.274;7.128;2024-01-15T00:30:03;34.23;;;19.83;;
12151;SDS011;6139;51.274;7.128;2024-01-15T00:31:06;31.47;;;18.37;;
12151;SDS011;6139;51.274;7.128;2024-01-15T00:32:07;32.87;;;19.33;;
12151;SDS011;6139;51.274;7.128;2024-01-15T00:33:08;29.30;;;17.60;;
12151;SDS011;6139;51.274;7.128;2024-01-15T00:34:12;30.67;;;19.00;;
12151;SDS011;6139;51.274;7.128;2024-01-15T00:35:14;29.63;;;18.23;;
12151;SDS011;6139;51.274;7.128;2024-01-15T00:36:16;28.20;;;18.33;;
12151;SDS011;6139;51.274;7.128;2024-01-15T00:37:17;29.33;;;18.57;;
12151;SDS011;6139;51.274;7.128;2024-01-15T00:38:19;28.20;;;17.40;;
12151;SDS011;6139;51.274;7.128;2024-01-15T00:39:20;28.00;;;17.87;;
12151;SDS011;6139;51.274;7.128;2024-01-15T00:40:22;27.93;;;17.67;;
12151;SDS011;6139;51.274;7.128;2024-01-15T00:41:23;30.87;;;17.93;;
12151;SDS011;6139;51.274;7.128;2024-01-15T00:42:24;28.20;;;16.70;;
12151;SDS011;6139;51.274;7.128;2024-01-15T00:43:26;26.87;;;17.70;;
12151;SDS011;6139;51.274;7.128;2024-01-15T00:44:27;30.73;;;18.20;;
12151;SDS011;6139;51.274;7.128;2024-01-15T00:45:28;27.53;;;17.57;;
12151;SDS011;6139;51.274;7.128;2024-01-15T00:46:29;28.80;;;18.23;;
12151;SDS011;6139;51.274;7.128;2024-01-15T00:47:30;31.53;;;18.20;;
12151;SDS011;6139;51.274;7.128;2024-01-15T00:48:32;26.60;;;16.33;;
12151;SDS011;6139;51.274;7.128;2024-01-15T00:49:33;29.87;;;17.50;;
12151;SDS011;6139;51.274;7.128;2024-01-15T00:50:37;29.07;;;17.70;;
12151;SDS011;6139;51.274;7.128;2024-01-15T00:51:38;33.33;;;18.17;;
12151;SDS011;6139;51.274;7.128;2024-01-15T00:52:40;30.13;;;18.80;;
12151;SDS011;6139;51.274;7.128;2024-01-15T00:53:41;31.40;;;18.90;;
12151;SDS011;6139;51.274;7.128;2024-01-15T00:54:42;30.13;;;17.60;;
12151;SDS011;6139;51.274;7.128;2024-01-15T00:55:44;29.87;;;17.77;;
12151;SDS011;6139;51.274;7.128;2024-01-15T00:56:45;30.80;;;18.23;;
12151;SDS011;6139;51.274;7.128;2024-01-15T00:57:47;32.20;;;19.93;;
12151;SDS011;6139;51.274;7.128;2024-01-15T00:58:48;28.90;;;16.90;;
12151;SDS011;6139;51.274;7.128;2024-01-15T00:59:49;32.53;;;18.53;;
12151;SDS011;6139;51.274;7.128;2024-01-15T01:00:50;32.67;;;19.17;;
12151;SDS011;6139;51.274;7.128;2024-01-15T01:01:52;34.20;;;18.77;;
12151;SDS011;6139;51.274;7.128;2024-01-15T01:02:53;32.87;;;19.17;;
12151;SDS011;6139;51.274;7.128;2024-01-15T01:03:55;32.03;;;19.20;;
12151;SDS011;6139;51.274;7.128;2024-01-15T01:04:56;30.20;;;19.17;;
12151;SDS011;6139;51.274;7.128;2024-01-15T01:05:59;31.83;;;19.13;;
12151;SDS011;6139;51.274;7.128;2024-01-15T01:07:00;32.40;;;19.07;;
12151;SDS011;6139;51.274;7.128;2024-01-15T01:08:02;30.63;;;18.20;;
12151;SDS011;6139;51.274;7.128;2024-01-15T01:09:04;33.13;;;18.97;;
12151;SDS011;6139;51.274;7.128;2024-01-15T01:10:06;31.63;;;19.33;;
12151;SDS011;6139;51.274;7.128;2024-01-15T01:11:07;47.23;;;19.80;;
12151;SDS011;6139;51.274;7.128;2024-01-15T01:12:13;31.60;;;19.13;;
12151;SDS011;6139;51.274;7.128;2024-01-15T01:13:14;34.60;;;19.20;;
12151;SDS011;6139;51.274;7.128;2024-01-15T01:14:16;30.67;;;18.53;;
12151;SDS011;6139;51.274;7.128;2024-01-15T01:15:17;30.00;;;18.50;;
12151;SDS011;6139;51.274;7.128;2024-01-15T01:16:20;32.17;;;18.63;;
12151;SDS011;6139;51.274;7.128;2024-01-15T01:17:21;30.20;;;19.13;;
12151;SDS011;6139;51.274;7.128;2024-01-15T01:18:23;29.60;;;17.37;;
12151;SDS011;6139;51.274;7.128;2024-01-15T01:19:24;27.43;;;17.97;;
12151;SDS011;6139;51.274;7.128;2024-01-15T01:20:25;27.67;;;17.67;;
12151;SDS011;6139;51.274;7.128;2024-01-15T01:21:28;28.10;;;18.60;;
12151;SDS011;6139;51.274;7.128;2024-01-15T01:22:29;28.70;;;18.13;;
12151;SDS011;6139;51.274;7.128;2024-01-15T01:23:30;29.20;;;18.17;;
12151;SDS011;6139;51.274;7.128;2024-01-15T01:24:32;30.17;;;17.20;;
12151;SDS011;6139;51.274;7.128;2024-01-15T01:25:33;28.97;;;18.10;;
12151;SDS011;6139;51.274;7.128;2024-01-15T01:26:35;44.20;;;18.27;;
12151;SDS011;6139;51.274;7.128;2024-01-15T01:27:36;31.70;;;18.37;;
12151;SDS011;6139;51.274;7.128;2024-01-15T01:28:38;35.00;;;19.20;;
12151;SDS011;6139;51.274;7.128;2024-01-15T01:29:39;30.17;;;18.43;;
12151;SDS011;6139;51.274;7.128;2024-01-15T01:30:40;29.73;;;18.53;;
12151;SDS011;6139;51.274;7.128;2024-01-15T01:31:42;28.93;;;18.90;;
12151;SDS011;6139;51.274;7.128;2024-01-15T01:32:44;32.23;;;19.10;;
12151;SDS011;6139;51.274;7.128;2024-01-15T01:33:46;26.80;;;17.87;;
12151;SDS011;6139;51.274;7.128;2024-01-15T01:34:47;31.00;;;18.57;;
12151;SDS011;6139;51.274;7.128;2024-01-15T01:35:48;29.00;;;18.27;;
12151;SDS011;6139;51.274;7.128;2024-01-15T01:36:51;27.20;;;17.10;;
12151;SDS011;6139;51.274;7.128;2024-01-15T01:37:52;30.07;;;17.97;;
12151;SDS011;6139;51.274;7.128;2024-01-15T01:38:54;28.87;;;16.63;;
12151;SDS011;6139;51.274;7.128;2024-01-15T01:39:55;28.63;;;17.47;;
12151;SDS011;6139;51.274;7.128;2024-01-15T01:40:57;28.10;;;17.67;;
12151;SDS011;6139;51.274;7.128;2024-01-15T01:41:57;31.73;;;18.93;;
12151;SDS011;6139;51.274;7.128;2024-01-15T01:42:59;32.57;;;17.57;;
12151;SDS011;6139;51.274;7.128;2024-01-15T01:44:00;27.17;;;17.57;;
12151;SDS011;6139;51.274;7.128;2024-01-15T01:45:02;29.47;;;18.23;;
12151;SDS011;6139;51.274;7.128;2024-01-15T01:46:04;29.33;;;18.07;;
12151;SDS011;6139;51.274;7.128;2024-01-15T01:47:07;30.00;;;18.73;;
12151;SDS011;6139;51.274;7.128;2024-01-15T01:48:08;28.07;;;18.07;;
12151;SDS011;6139;51.274;7.128;2024-01-15T01:49:10;31.30;;;18.50;;
12151;SDS011;6139;51.274;7.128;2024-01-15T01:50:12;47.10;;;19.83;;
12151;SDS011;6139;51.274;7.128;2024-01-15T01:51:15;28.00;;;18.03;;
12151;SDS011;6139;51.274;7.128;2024-01-15T01:52:17;41.97;;;19.33;;
12151;SDS011;6139;51.274;7.128;2024-01-15T01:53:18;27.83;;;17.50;;
12151;SDS011;6139;51.274;7.128;2024-01-15T01:54:21;29.80;;;18.27;;
12151;SDS011;6139;51.274;7.128;2024-01-15T01:55:22;29.70;;;19.03;;
12151;SDS011;6139;51.274;7.128;2024-01-15T01:56:27;31.73;;;19.53;;
12151;SDS011;6139;51.274;7.128;2024-01-15T01:57:28;34.13;;;18.47;;
12151;SDS011;6139;51.274;7.128;2024-01-15T01:58:31;30.13;;;18.83;;
12151;SDS011;6139;51.274;7.128;2024-01-15T01:59:34;32.90;;;18.67;;
12151;SDS011;6139;51.274;7.128;2024-01-15T02:00:36;35.67;;;19.63;;
12151;SDS011;6139;51.274;7.128;2024-01-15T02:01:39;83.03;;;20.27;;
12151;SDS011;6139;51.274;7.128;2024-01-15T02:02:40;29.07;;;19.67;;
12151;SDS011;6139;51.274;7.128;2024-01-15T02:03:43;34.83;;;19.07;;
12151;SDS011;6139;51.274;7.128;2024-01-15T02:04:44;29.07;;;18.50;;
12151;SDS011;6139;51.274;7.128;2024-01-15T02:05:48;29.50;;;18.80;;
12151;SDS011;6139;51.274;7.128;2024-01-15T02:06:49;42.27;;;20.43;;
12151;SDS011;6139;51.274;7.128;2024-01-15T02:07:53;47.37;;;20.03;;
12151;SDS011;6139;51.274;7.128;2024-01-15T02:08:54;31.03;;;19.50;;
12151;SDS011;6139;51.274;7.128;2024-01-15T02:09:56;29.70;;;18.90;;
12151;SDS011;6139;51.274;7.128;2024-01-15T02:10:57;33.03;;;19.30;;
12151;SDS011;6139;51.274;7.128;2024-01-15T02:11:59;41.30;;;19.23;;
12151;SDS011;6139;51.274;7.128;2024-01-15T02:13:00;30.50;;;17.97;;
12151;SDS011;6139;51.274;7.128;2024-01-15T02:14:02;34.27;;;18.43;;
12151;SDS011;6139;51.274;7.128;2024-01-15T02:15:04;33.30;;;18.37;;
12151;SDS011;6139;51.274;7.128;2024-01-15T02:16:07;34.30;;;18.73;;
12151;SDS011;6139;51.274;7.128;2024-01-15T02:17:08;33.47;;;17.90;;
12151;SDS011;6139;51.274;7.128;2024-01-15T02:18:09;34.47;;;17.23;;
12151;SDS011;6139;51.274;7.128;2024-01-15T02:19:14;30.87;;;17.17;;
12151;SDS011;6139;51.274;7.128;2024-01-15T02:20:16;38.27;;;17.33;;
12151;SDS011;6139;51.274;7.128;2024-01-15T02:21:18;28.13;;;16.70;;
12151;SDS011;6139;51.274;7.128;2024-01-15T02:22:18;27.83;;;17.00;;
12151;SDS011;6139;51.274;7.128;2024-01-15T02:23:22;30.53;;;17.47;;
12151;SDS011;6139;51.274;7.128;2024-01-15T02:24:23;28.00;;;16.97;;
12151;SDS011;6139;51.274;7.128;2024-01-15T02:25:24;27.73;;;16.33;;
12151;SDS011;6139;51.274;7.128;2024-01-15T02:26:25;26.20;;;16.63;;
12151;SDS011;6139;51.274;7.128;2024-01-15T02:27:26;26.73;;;16.43;;
12151;SDS011;6139;51.274;7.128;2024-01-15T02:28:29;26.80;;;16.33;;
12151;SDS011;6139;51.274;7.128;2024-01-15T02:29:30;33.40;;;17.60;;
12151;SDS011;6139;51.274;7.128;2024-01-15T02:30:32;28.10;;;16.73;;
12151;SDS011;6139;51.274;7.128;2024-01-15T02:31:37;29.00;;;16.03;;
12151;SDS011;6139;51.274;7.128;2024-01-15T02:32:39;27.93;;;15.97;;
12151;SDS011;6139;51.274;7.128;2024-01-15T02:33:39;28.73;;;16.50;;
12151;SDS011;6139;51.274;7.128;2024-01-15T02:34:42;27.70;;;16.70;;
12151;SDS011;6139;51.274;7.128;2024-01-15T02:35:43;26.70;;;16.07;;
12151;SDS011;6139;51.274;7.128;2024-01-15T02:36:46;26.83;;;16.87;;
12151;SDS011;6139;51.274;7.128;2024-01-15T02:37:47;28.77;;;17.10;;
12151;SDS011;6139;51.274;7.128;2024-01-15T02:38:49;39.80;;;17.10;;
12151;SDS011;6139;51.274;7.128;2024-01-15T02:39:51;26.70;;;16.13;;
12151;SDS011;6139;51.274;7.128;2024-01-15T02:40:52;29.27;;;17.13;;
12151;SDS011;6139;51.274;7.128;2024-01-15T02:41:54;28.17;;;15.87;;
12151;SDS011;6139;51.274;7.128;2024-01-15T02:42:57;27.73;;;16.73;;
12151;SDS011;6139;51.274;7.128;2024-01-15T02:43:59;23.80;;;15.70;;
12151;SDS011;6139;51.274;7.128;2024-01-15T02:45:00;25.40;;;15.23;;
12151;SDS011;6139;51.274;7.128;2024-01-15T02:46:01;28.70;;;15.33;;
12151;SDS011;6139;51.274;7.128;2024-01-15T02:47:04;30.33;;;15.23;;
12151;SDS011;6139;51.274;7.128;2024-01-15T02:48:05;27.30;;;14.97;;
12151;SDS011;6139;51.274;7.128;2024-01-15T02:49:07;26.57;;;15.77;;
12151;SDS011;6139;51.274;7.128;2024-01-15T02:50:08;26.60;;;15.93;;
12151;SDS011;6139;51.274;7.128;2024-01-15T02:51:10;28.87;;;16.20;;
12151;SDS011;6139;51.274;7.128;2024-01-15T02:52:11;26.47;;;14.93;;
12151;SDS011;6139;51.274;7.128;2024-01-15T02:53:13;26.87;;;15.47;;
12151;SDS011;6139;51.274;7.128;2024-01-15T02:54:15;49.63;;;16.63;;
12151;SDS011;6139;51.274;7.128;2024-01-15T02:55:17;28.97;;;14.90;;
12151;SDS011;6139;51.274;7.128;2024-01-15T02:56:18;26.10;;;15.50;;
12151;SDS011;6139;51.274;7.128;2024-01-15T02:57:19;25.90;;;15.77;;
12151;SDS011;6139;51.274;7.128;2024-01-15T02:58:21;21.43;;;14.20;;
12151;SDS011;6139;51.274;7.128;2024-01-15T02:59:22;27.33;;;15.00;;
12151;SDS011;6139;51.274;7.128;2024-01-15T03:00:23;24.53;;;14.47;;
12151;SDS011;6139;51.274;7.128;2024-01-15T03:01:25;23.80;;;15.50;;
12151;SDS011;6139;51.274;7.128;2024-01-15T03:02:26;31.57;;;15.70;;
12151;SDS011;6139;51.274;7.128;2024-01-15T03:03:28;25.13;;;15.60;;
12151;SDS011;6139;51.274;7.128;2024-01-15T03:04:29;28.23;;;14.70;;
12151;SDS011;6139;51.274;7.128;2024-01-15T03:05:30;28.40;;;14.87;;
12151;SDS011;6139;51.274;7.128;2024-01-15T03:06:31;23.47;;;14.30;;
12151;SDS011;6139;51.274;7.128;2024-01-15T03:07:32;24.53;;;14.63;;
12151;SDS011;6139;51.274;7.128;2024-01-15T03:08:34;22.63;;;14.67;;
12151;SDS011;6139;51.274;7.128;2024-01-15T03:09:37;25.70;;;14.57;;
12151;SDS011;6139;51.274;7.128;2024-01-15T03:10:39;24.60;;;14.77;;
12151;SDS011;6139;51.274;7.128;2024-01-15T03:11:40;27.53;;;15.07;;
12151;SDS011;6139;51.274;7.128;2024-01-15T03:12:43;21.47;;;13.73;;
12151;SDS011;6139;51.274;7.128;2024-01-15T03:13:43;22.23;;;13.37;;
12151;SDS011;6139;51.274;7.128;2024-01-15T03:14:45;26.47;;;14.80;;
12151;SDS011;6139;51.274;7.128;2024-01-15T03:15:47;26.53;;;14.53;;
12151;SDS011;6139;51.274;7.128;2024-01-15T03:16:48;29.63;;;15.83;;
12151;SDS011;6139;51.274;7.128;2024-01-15T03:17:49;21.70;;;14.60;;
12151;SDS011;6139;51.274;7.128;2024-01-15T03:18:51;23.70;;;13.10;;
12151;SDS011;6139;51.274;7.128;2024-01-15T03:19:52;28.23;;;13.53;;
12151;SDS011;6139;51.274;7.128;2024-01-15T03:20:54;24.73;;;14.53;;
12151;SDS011;6139;51.274;7.128;2024-01-15T03:21:55;22.40;;;14.07;;
12151;SDS011;6139;51.274;7.128;2024-01-15T03:22:57;19.80;;;12.60;;
12151;SDS011;6139;51.274;7.128;2024-01-15T03:23:58;21.00;;;13.13;;
12151;SDS011;6139;51.274;7.128;2024-01-15T03:25:01;22.77;;;13.43;;
12151;SDS011;6139;51.274;7.128;2024-01-15T03:26:02;19.13;;;11.93;;
12151;SDS011;6139;51.274;7.128;2024-01-15T03:27:04;21.20;;;12.00;;
12151;SDS011;6139;51.274;7.128;2024-01-15T03:28:05;22.23;;;11.97;;
12151;SDS011;6139;51.274;7.128;2024-01-15T03:29:07;20.47;;;12.27;;
12151;SDS011;6139;51.274;7.128;2024-01-15T03:30:08;23.00;;;12.30;;
12151;SDS011;6139;51.274;7.128;2024-01-15T03:31:11;20.10;;;11.17;;
12151;SDS011;6139;51.274;7.128;2024-01-15T03:32:12;21.60;;;11.63;;
12151;SDS011;6139;51.274;7.128;2024-01-15T03:33:16;23.27;;;12.23;;
12151;SDS011;6139;51.274;7.128;2024-01-15T03:34:16;22.17;;;11.97;;
12151;SDS011;6139;51.274;7.128;2024-01-15T03:35:18;19.57;;;13.33;;
12151;SDS011;6139;51.274;7.128;2024-01-15T03:36:19;21.23;;;12.63;;
12151;SDS011;6139;51.274;7.128;2024-01-15T03:37:22;22.67;;;12.60;;
12151;SDS011;6139;51.274;7.128;2024-01-15T03:38:23;17.63;;;12.30;;
12151;SDS011;6139;51.274;7.128;2024-01-15T03:39:25;21.43;;;11.80;;
12151;SDS011;6139;51.274;7.128;2024-01-15T03:40:27;21.23;;;12.13;;
12151;SDS011;6139;51.274;7.128;2024-01-15T03:41:29;21.97;;;12.73;;
12151;SDS011;6139;51.274;7.128;2024-01-15T03:42:30;21.23;;;12.23;;
12151;SDS011;6139;51.274;7.128;2024-01-15T03:43:32;20.20;;;12.47;;
12151;SDS011;6139;51.274;7.128;2024-01-15T03:44:33;22.93;;;13.23;;
12151;SDS011;6139;51.274;7.128;2024-01-15T03:45:35;20.43;;;13.67;;
12151;SDS011;6139;51.274;7.128;2024-01-15T03:46:36;24.53;;;13.60;;
12151;SDS011;6139;51.274;7.128;2024-01-15T03:47:38;21.27;;;13.10;;
12151;SDS011;6139;51.274;7.128;2024-01-15T03:48:39;24.57;;;13.53;;
12151;SDS011;6139;51.274;7.128;2024-01-15T03:49:41;23.83;;;13.43;;
12151;SDS011;6139;51.274;7.128;2024-01-15T03:50:41;27.53;;;14.07;;
12151;SDS011;6139;51.274;7.128;2024-01-15T03:51:44;23.73;;;13.47;;
12151;SDS011;6139;51.274;7.128;2024-01-15T03:52:45;23.60;;;12.20;;
12151;SDS011;6139;51.274;7.128;2024-01-15T03:53:47;21.23;;;13.23;;
12151;SDS011;6139;51.274;7.128;2024-01-15T03:54:48;22.90;;;14.50;;
12151;SDS011;6139;51.274;7.128;2024-01-15T03:55:51;23.20;;;14.10;;
12151;SDS011;6139;51.274;7.128;2024-01-15T03:56:52;25.93;;;14.87;;
12151;SDS011;6139;51.274;7.128;2024-01-15T03:57:53;25.57;;;13.90;;
12151;SDS011;6139;51.274;7.128;2024-01-15T03:58:55;19.40;;;12.77;;
12151;SDS011;6139;51.274;7.128;2024-01-15T03:59:56;19.83;;;13.10;;
12151;SDS011;6139;51.274;7.128;2024-01-15T04:00:57;26.00;;;13.93;;
12151;SDS011;6139;51.274;7.128;2024-01-15T04:01:59;20.27;;;13.40;;
12151;SDS011;6139;51.274;7.128;2024-01-15T04:03:00;26.37;;;14.67;;
12151;SDS011;6139;51.274;7.128;2024-01-15T04:04:02;22.23;;;14.03;;
12151;SDS011;6139;51.274;7.128;2024-01-15T04:05:03;22.33;;;13.53;;
12151;SDS011;6139;51.274;7.128;2024-01-15T04:06:05;20.77;;;13.33;;
12151;SDS011;6139;51.274;7.128;2024-01-15T04:07:06;23.23;;;13.87;;
12151;SDS011;6139;51.274;7.128;2024-01-15T04:08:08;26.90;;;13.63;;
12151;SDS011;6139;51.274;7.128;2024-01-15T04:09:09;24.70;;;13.27;;
12151;SDS011;6139;51.274;7.128;2024-01-15T04:10:11;20.40;;;13.37;;
12151;SDS011;6139;51.274;7.128;2024-01-15T04:11:15;19.70;;;12.37;;
12151;SDS011;6139;51.274;7.128;2024-01-15T04:12:16;21.93;;;13.47;;
12151;SDS011;6139;51.274;7.128;2024-01-15T04:13:17;19.67;;;12.80;;
12151;SDS011;6139;51.274;7.128;2024-01-15T04:14:18;20.60;;;13.07;;
12151;SDS011;6139;51.274;7.128;2024-01-15T04:15:19;20.33;;;13.00;;
12151;SDS011;6139;51.274;7.128;2024-01-15T04:16:21;25.93;;;13.60;;
12151;SDS011;6139;51.274;7.128;2024-01-15T04:17:22;20.50;;;13.20;;
12151;SDS011;6139;51.274;7.128;2024-01-15T04:18:24;18.90;;;12.37;;
12151;SDS011;6139;51.274;7.128;2024-01-15T04:19:25;24.70;;;14.00;;
12151;SDS011;6139;51.274;7.128;2024-01-15T04:20:27;21.90;;;12.93;;
12151;SDS011;6139;51.274;7.128;2024-01-15T04:21:28;21.67;;;12.93;;
12151;SDS011;6139;51.274;7.128;2024-01-15T04:22:30;19.63;;;11.80;;
12151;SDS011;6139;51.274;7.128;2024-01-15T04:23:31;18.37;;;12.53;;
12151;SDS011;6139;51.274;7.128;2024-01-15T04:24:33;22.93;;;12.73;;
12151;SDS011;6139;51.274;7.128;2024-01-15T04:25:34;19.50;;;12.13;;
12151;SDS011;6139;51.274;7.128;2024-01-15T04:26:37;20.40;;;12.60;;
12151;SDS011;6139;51.274;7.128;2024-01-15T04:27:38;21.53;;;12.30;;
12151;SDS011;6139;51.274;7.128;2024-01-15T04:28:40;20.93;;;12.47;;
12151;SDS011;6139;51.274;7.128;2024-01-15T04:29:41;20.90;;;13.03;;
12151;SDS011;6139;51.274;7.128;2024-01-15T04:30:44;20.33;;;12.30;;
12151;SDS011;6139;51.274;7.128;2024-01-15T04:31:45;16.63;;;12.70;;
12151;SDS011;6139;51.274;7.128;2024-01-15T04:32:47;20.57;;;12.07;;
12151;SDS011;6139;51.274;7.128;2024-01-15T04:33:48;22.30;;;13.03;;
12151;SDS011;6139;51.274;7.128;2024-01-15T04:34:50;18.10;;;12.00;;
12151;SDS011;6139;51.274;7.128;2024-01-15T04:35:51;24.03;;;12.87;;
12151;SDS011;6139;51.274;7.128;2024-01-15T04:36:53;22.47;;;13.33;;
12151;SDS011;6139;51.274;7.128;2024-01-15T04:37:54;19.07;;;13.20;;
12151;SDS011;6139;51.274;7.128;2024-01-15T04:38:55;21.93;;;13.40;;
12151;SDS011;6139;51.274;7.128;2024-01-15T04:39:57;19.97;;;13.07;;
12151;SDS011;6139;51.274;7.128;2024-01-15T04:40:58;19.70;;;11.90;;
12151;SDS011;6139;51.274;7.128;2024-01-15T04:42:02;21.50;;;13.40;;
12151;SDS011;6139;51.274;7.128;2024-01-15T04:43:03;21.63;;;12.77;;
12151;SDS011;6139;51.274;7.128;2024-01-15T04:44:05;20.57;;;13.50;;
12151;SDS011;6139;51.274;7.128;2024-01-15T04:45:06;23.33;;;12.70;;
12151;SDS011;6139;51.274;7.128;2024-01-15T04:46:08;19.97;;;13.20;;
12151;SDS011;6139;51.274;7.128;2024-01-15T04:47:10;19.23;;;12.70;;
12151;SDS011;6139;51.274;7.128;2024-01-15T04:48:10;20.53;;;12.30;;
12151;SDS011;6139;51.274;7.128;2024-01-15T04:49:12;19.60;;;12.97;;
12151;SDS011;6139;51.274;7.128;2024-01-15T04:50:13;20.27;;;13.17;;
12151;SDS011;6139;51.274;7.128;2024-01-15T04:51:15;21.73;;;12.17;;
12151;SDS011;6139;51.274;7.128;2024-01-15T04:52:16;22.00;;;13.03;;
12151;SDS011;6139;51.274;7.128;2024-01-15T04:53:18;19.43;;;13.17;;
12151;SDS011;6139;51.274;7.128;2024-01-15T04:54:19;17.93;;;12.50;;
12151;SDS011;6139;51.274;7.128;2024-01-15T04:55:21;18.27;;;13.03;;
12151;SDS011;6139;51.274;7.128;2024-01-15T04:56:22;23.63;;;13.40;;
12151;SDS011;6139;51.274;7.128;2024-01-15T04:57:25;23.23;;;13.37;;
12151;SDS011;6139;51.274;7.128;2024-01-15T04:58:26;21.87;;;13.23;;
12151;SDS011;6139;51.274;7.128;2024-01-15T04:59:28;21.17;;;13.13;;
12151;SDS011;6139;51.274;7.128;2024-01-15T05:00:29;22.50;;;13.13;;
12151;SDS011;6139;51.274;7.128;2024-01-15T05:01:31;22.27;;;13.23;;
12151;SDS011;6139;51.274;7.128;2024-01-15T05:02:33;19.07;;;12.93;;
12151;SDS011;6139;51.274;7.128;2024-01-15T05:03:33;22.33;;;12.63;;
12151;SDS011;6139;51.274;7.128;2024-01-15T05:04:35;19.33;;;12.23;;
12151;SDS011;6139;51.274;7.128;2024-01-15T05:05:36;18.20;;;12.07;;
12151;SDS011;6139;51.274;7.128;2024-01-15T05:06:37;21.70;;;12.80;;
12151;SDS011;6139;51.274;7.128;2024-01-15T05:07:39;25.77;;;13.13;;
12151;SDS011;6139;51.274;7.128;2024-01-15T05:08:40;22.57;;;13.57;;
12151;SDS011;6139;51.274;7.128;2024-01-15T05:09:42;19.67;;;12.60;;
12151;SDS011;6139;51.274;7.128;2024-01-15T05:10:43;21.40;;;13.57;;
12151;SDS011;6139;51.274;7.128;2024-01-15T05:11:45;20.57;;;12.53;;
12151;SDS011;6139;51.274;7.128;2024-01-15T05:12:47;18.23;;;12.17;;
12151;SDS011;6139;51.274;7.128;2024-01-15T05:13:49;21.33;;;12.93;;
12151;SDS011;6139;51.274;7.128;2024-01-15T05:14:50;20.80;;;12.57;;
12151;SDS011;6139;51.274;7.128;2024-01-15T05:15:52;21.27;;;12.27;;
12151;SDS011;6139;51.274;7.128;2024-01-15T05:16:53;22.13;;;12.93;;
12151;SDS011;6139;51.274;7.128;2024-01-15T05:17:55;21.00;;;12.47;;
12151;SDS011;6139;51.274;7.128;2024-01-15T05:18:56;22.20;;;13.57;;
12151;SDS011;6139;51.274;7.128;2024-01-15T05:19:58;22.67;;;12.80;;
12151;SDS011;6139;51.274;7.128;2024-01-15T05:20:58;22.10;;;13.07;;
12151;SDS011;6139;51.274;7.128;2024-01-15T05:22:00;20.97;;;12.93;;
12151;SDS011;6139;51.274;7.128;2024-01-15T05:23:01;17.70;;;12.23;;
12151;SDS011;6139;51.274;7.128;2024-01-15T05:24:03;18.10;;;11.97;;
12151;SDS011;6139;51.274;7.128;2024-01-15T05:25:05;18.77;;;13.40;;
12151;SDS011;6139;51.274;7.128;2024-01-15T05:26:07;19.40;;;12.80;;
12151;SDS011;6139;51.274;7.128;2024-01-15T05:27:09;22.73;;;13.67;;
12151;SDS011;6139;51.274;7.128;2024-01-15T05:28:12;18.87;;;12.63;;
12151;SDS011;6139;51.274;7.128;2024-01-15T05:29:14;19.70;;;12.93;;
12151;SDS011;6139;51.274;7.128;2024-01-15T05:30:15;19.93;;;11.70;;
12151;SDS011;6139;51.274;7.128;2024-01-15T05:31:16;20.80;;;12.80;;
12151;SDS011;6139;51.274;7.128;2024-01-15T05:32:18;21.50;;;13.13;;
12151;SDS011;6139;51.274;7.128;2024-01-15T05:33:19;20.13;;;12.63;;
12151;SDS011;6139;51.274;7.128;2024-01-15T05:34:21;18.33;;;11.63;;
12151;SDS011;6139;51.274;7.128;2024-01-15T05:35:22;20.30;;;11.73;;
12151;SDS011;6139;51.274;7.128;2024-01-15T05:36:24;18.03;;;11.67;;
12151;SDS011;6139;51.274;7.128;2024-01-15T05:37:25;23.00;;;12.53;;
12151;SDS011;6139;51.274;7.128;2024-01-15T05:38:27;16.87;;;11.57;;
12151;SDS011;6139;51.274;7.128;2024-01-15T05:39:28;16.50;;;11.40;;
12151;SDS011;6139;51.274;7.128;2024-01-15T05:40:30;17.80;;;12.47;;
12151;SDS011;6139;51.274;7.128;2024-01-15T05:41:31;17.93;;;11.67;;
12151;SDS011;6139;51.274;7.128;2024-01-15T05:42:32;18.33;;;11.60;;
12151;SDS011;6139;51.274;7.128;2024-01-15T05:43:35;19.97;;;12.30;;
12151;SDS011;6139;51.274;7.128;2024-01-15T05:44:36;17.73;;;11.53;;
12151;SDS011;6139;51.274;7.128;2024-01-15T05:45:38;21.60;;;12.07;;
12151;SDS011;6139;51.274;7.128;2024-01-15T05:46:39;17.00;;;11.13;;
12151;SDS011;6139;51.274;7.128;2024-01-15T05:47:41;19.77;;;11.47;;
12151;SDS011;6139;51.274;7.128;2024-01-15T05:48:44;20.33;;;11.93;;
12151;SDS011;6139;51.274;7.128;2024-01-15T05:49:46;23.33;;;13.13;;
12151;SDS011;6139;51.274;7.128;2024-01-15T05:50:46;19.13;;;11.23;;
12151;SDS011;6139;51.274;7.128;2024-01-15T05:51:48;19.40;;;11.13;;
12151;SDS011;6139;51.274;7.128;2024-01-15T05:52:49;16.63;;;11.93;;
12151;SDS011;6139;51.274;7.128;2024-01-15T05:53:52;16.50;;;11.20;;
12151;SDS011;6139;51.274;7.128;2024-01-15T05:54:53;17.40;;;11.17;;
12151;SDS011;6139;51.274;7.128;2024-01-15T05:55:54;17.30;;;11.23;;
12151;SDS011;6139;51.274;7.128;2024-01-15T05:56:57;16.37;;;10.90;;
12151;SDS011;6139;51.274;7.128;2024-01-15T05:57:58;21.03;;;11.50;;
12151;SDS011;6139;51.274;7.128;2024-01-15T05:59:01;20.87;;;12.10;;
12151;SDS011;6139;51.274;7.128;2024-01-15T06:00:02;16.07;;;10.70;;
12151;SDS011;6139;51.274;7.128;2024-01-15T06:01:06;17.30;;;11.07;;
12151;SDS011;6139;51.274;7.128;2024-01-15T06:02:07;16.60;;;10.47;;
12151;SDS011;6139;51.274;7.128;2024-01-15T06:03:09;18.63;;;11.33;;
12151;SDS011;6139;51.274;7.128;2024-01-15T06:04:10;17.43;;;10.97;;
12151;SDS011;6139;51.274;7.128;2024-01-15T06:05:11;15.60;;;11.13;;